Time;durP1;ratioP1;P1;durP2;ratioP2;P2;SDS_P1;SDS_P2;PMS_P1;PMS_P2;Temp;Humidity;BMP_temperature;BMP_pressure;BME280_temperature;BME280_humidity;BME280_pressure;Samples;Min_cycle;Max_cycle;Signal;HPM_P1;HPM_P2
2022/10/19 00:01:06;;;;;;;;;;;13.40;99.90;;;;;;5072094;28;19916;-83
2022/10/19 00:03:32;;;;;;;;;;;13.40;99.90;;;;;;5079467;28;19998;-83
2022/10/19 00:05:57;;;;;;;;;;;13.40;99.90;;;;;;5059221;28;20285;-84
2022/10/19 00:08:23;;;;;;;;;;;13.30;99.90;;;;;;5078504;28;19912;-83
2022/10/19 00:10:48;;;;;;;;;;;13.30;99.90;;;;;;5073218;28;19912;-83
2022/10/19 00:13:14;;;;;;;;;;;13.20;99.90;;;;;;5080610;28;19916;-83
2022/10/19 00:15:40;;;;;;;;;;;13.20;99.90;;;;;;5059907;28;19913;-84
2022/10/19 00:18:06;;;;;;;;;;;13.20;99.90;;;;;;5078951;28;19962;-84
2022/10/19 00:20:31;;;;;;;;;;;13.20;99.90;;;;;;5080201;28;19920;-83
2022/10/19 00:22:57;;;;;;;;;;;13.20;99.90;;;;;;5077298;28;20007;-84
2022/10/19 00:25:22;;;;;;;;;;;13.20;99.90;;;;;;5076551;28;19921;-84
2022/10/19 00:27:48;;;;;;;;;;;13.20;99.90;;;;;;5064364;28;19923;-84
2022/10/19 00:30:13;;;;;;;;;;;13.20;99.90;;;;;;5075051;28;19923;-84
2022/10/19 00:32:39;;;;;;;;;;;13.10;99.90;;;;;;5067185;28;20373;-84
2022/10/19 00:35:05;;;;;;;;;;;13.10;99.90;;;;;;5069860;28;19919;-84
2022/10/19 00:37:30;;;;;;;;;;;13.10;99.90;;;;;;5078697;28;19935;-83
2022/10/19 00:39:56;;;;;;;;;;;13.10;99.90;;;;;;5080407;28;19912;-83
2022/10/19 00:42:21;;;;;;;;;;;13.00;99.90;;;;;;5061812;28;19916;-84
2022/10/19 00:44:47;;;;;;;;;;;13.00;99.90;;;;;;5079300;28;19944;-84
2022/10/19 00:47:13;;;;;;;;;;;12.90;99.90;;;;;;5073924;28;19920;-84
2022/10/19 00:49:41;;;;;;;;;;;12.90;99.90;;;;;;5062483;28;20388;-83
2022/10/19 00:52:09;;;;;;;;;;;12.80;99.90;;;;;;5066545;28;20286;-83
2022/10/19 00:54:36;;;;;;;;;;;12.80;99.90;;;;;;5062744;28;20352;-84
2022/10/19 00:57:02;;;;;;;;;;;12.80;99.90;;;;;;5070718;28;20352;-84
2022/10/19 00:59:30;;;;;;;;;;;12.80;99.90;;;;;;5061905;28;19913;-84
2022/10/19 01:01:56;;;;;;;;;;;12.80;99.90;;;;;;5075119;28;20284;-84
2022/10/19 01:04:23;;;;;;;;;;;12.80;99.90;;;;;;5081166;28;19919;-84
2022/10/19 01:06:49;;;;;;;;;;;12.80;99.90;;;;;;5077746;28;20381;-84
2022/10/19 01:09:14;;;;;;;;;;;12.80;99.90;;;;;;5061737;28;19952;-84
2022/10/19 01:11:40;;;;;;;;;;;12.80;99.90;;;;;;5078832;28;19917;-84
2022/10/19 01:14:05;;;;;;;;;;;12.90;99.90;;;;;;5072958;28;19913;-84
2022/10/19 01:16:43;;;;;;;;;;;12.90;99.90;;;;;;5075369;28;19916;-84
2022/10/19 01:19:27;;;;;;;;;;;12.90;99.90;;;;;;5073027;28;19916;-84
2022/10/19 01:22:11;;;;;;;;;;;12.90;99.90;;;;;;5066186;28;19935;-84
2022/10/19 01:24:36;;;;;;;;;;;12.90;99.90;;;;;;5061137;28;20046;-84
2022/10/19 01:27:28;;;;;;;;;;;12.90;99.90;;;;;;5076735;28;19986;-84
2022/10/19 01:29:57;;;;;;;;;;;12.90;99.90;;;;;;5056312;28;19909;-84
2022/10/19 01:32:22;;;;;;;;;;;12.80;99.90;;;;;;5068015;28;19912;-84
2022/10/19 01:35:17;;;;;;;;;;;12.90;99.90;;;;;;5077340;28;19923;-84
2022/10/19 01:37:42;;;;;;;;;;;12.80;99.90;;;;;;5053329;28;19924;-84
2022/10/19 01:40:11;;;;;;;;;;;12.80;99.90;;;;;;5067687;28;19917;-84
2022/10/19 01:42:40;;;;;;;;;;;12.80;99.90;;;;;;5083183;28;19909;-84
2022/10/19 01:45:20;;;;;;;;;;;12.80;99.90;;;;;;5070628;28;19912;-84
2022/10/19 01:47:51;;;;;;;;;;;12.80;99.90;;;;;;5090125;28;19916;-84
2022/10/19 01:50:30;;;;;;;;;;;12.80;99.90;;;;;;5076837;28;20014;-84
2022/10/19 01:52:56;;;;;;;;;;;12.80;99.90;;;;;;5075952;28;19912;-84
2022/10/19 01:55:23;;;;;;;;;;;12.80;99.90;;;;;;5068066;28;19917;-84
2022/10/19 01:58:01;;;;;;;;;;;12.80;99.90;;;;;;5075726;28;19921;-84
2022/10/19 02:00:27;;;;;;;;;;;12.80;99.90;;;;;;5090051;28;19917;-84
2022/10/19 02:02:53;;;;;;;;;;;12.80;99.90;;;;;;5070803;28;19927;-84
2022/10/19 02:05:20;;;;;;;;;;;12.80;99.90;;;;;;5081683;28;19917;-84
2022/10/19 02:07:48;;;;;;;;;;;12.80;99.90;;;;;;5080382;28;20395;-84
2022/10/19 02:10:13;;;;;;;;;;;12.80;99.90;;;;;;5069426;28;19912;-84
2022/10/19 02:12:40;;;;;;;;;;;12.80;99.90;;;;;;5081068;28;19988;-84
2022/10/19 02:15:09;;;;;;;;;;;12.80;99.90;;;;;;5079864;28;19917;-84
2022/10/19 02:17:36;;;;;;;;;;;12.80;99.90;;;;;;5068578;28;19912;-83
2022/10/19 02:20:02;;;;;;;;;;;12.70;99.90;;;;;;5075946;28;19909;-84
2022/10/19 02:22:28;;;;;;;;;;;12.70;99.90;;;;;;5059315;28;20269;-84
2022/10/19 02:24:53;;;;;;;;;;;12.60;99.90;;;;;;5066876;28;19917;-84
2022/10/19 02:27:19;;;;;;;;;;;12.50;99.90;;;;;;5059734;28;19924;-83
2022/10/19 02:29:45;;;;;;;;;;;12.60;99.90;;;;;;5075847;28;19912;-83
2022/10/19 02:32:10;;;;;;;;;;;12.60;99.90;;;;;;5071841;28;20011;-83
2022/10/19 02:34:37;;;;;;;;;;;12.60;99.90;;;;;;5057270;28;19916;-83
2022/10/19 02:37:03;;;;;;;;;;;12.50;99.90;;;;;;5061753;28;19955;-83
2022/10/19 02:39:29;;;;;;;;;;;12.50;99.90;;;;;;5057824;28;20470;-84
2022/10/19 02:42:14;;;;;;;;;;;12.40;99.90;;;;;;5074452;28;19923;-83
2022/10/19 02:44:49;;;;;;;;;;;12.30;99.90;;;;;;5064331;28;19959;-84
2022/10/19 02:47:17;;;;;;;;;;;12.30;99.90;;;;;;5056775;28;20364;-83
2022/10/19 02:49:43;;;;;;;;;;;12.30;99.90;;;;;;5072366;28;19913;-83
2022/10/19 02:52:09;;;;;;;;;;;12.20;99.90;;;;;;5059950;28;19987;-83
2022/10/19 02:54:36;;;;;;;;;;;12.20;99.90;;;;;;5079562;28;20000;-84
2022/10/19 02:57:13;;;;;;;;;;;12.20;99.90;;;;;;5054412;28;20007;-83
2022/10/19 02:59:38;;;;;;;;;;;12.20;99.90;;;;;;5087479;28;19924;-83
2022/10/19 03:02:04;;;;;;;;;;;12.20;99.90;;;;;;5078981;28;19963;-83
2022/10/19 03:04:29;;;;;;;;;;;12.20;99.90;;;;;;5058207;28;19916;-83
2022/10/19 03:06:55;;;;;;;;;;;12.10;99.90;;;;;;5078231;28;19917;-83
2022/10/19 03:09:20;;;;;;;;;;;12.10;99.90;;;;;;5054585;28;20392;-83
2022/10/19 03:11:46;;;;;;;;;;;12.10;99.90;;;;;;5065635;28;20368;-84
2022/10/19 03:14:11;;;;;;;;;;;12.10;99.90;;;;;;5057264;28;19913;-84
2022/10/19 03:16:37;;;;;;;;;;;12.10;99.90;;;;;;5070560;28;20003;-84
2022/10/19 03:19:02;;;;;;;;;;;12.10;99.90;;;;;;5056792;28;19917;-84
2022/10/19 03:21:28;;;;;;;;;;;12.10;99.90;;;;;;5056984;28;19925;-84
2022/10/19 03:23:53;;;;;;;;;;;12.00;99.90;;;;;;5072869;28;19916;-84
2022/10/19 03:26:19;;;;;;;;;;;11.90;99.90;;;;;;5069287;28;19920;-84
2022/10/19 03:28:45;;;;;;;;;;;11.90;99.90;;;;;;5075585;28;19939;-84
2022/10/19 03:31:10;;;;;;;;;;;11.90;99.90;;;;;;5074790;28;19913;-84
2022/10/19 03:33:36;;;;;;;;;;;11.90;99.90;;;;;;5070377;28;20007;-83
2022/10/19 03:36:20;;;;;;;;;;;11.80;99.90;;;;;;5072458;28;20326;-83
2022/10/19 03:38:48;;;;;;;;;;;11.90;99.90;;;;;;5071389;28;19969;-83
2022/10/19 03:41:13;;;;;;;;;;;11.90;99.90;;;;;;5072860;28;19912;-83
2022/10/19 03:43:40;;;;;;;;;;;11.90;99.90;;;;;;5069093;28;19958;-83
2022/10/19 03:46:05;;;;;;;;;;;11.90;99.90;;;;;;5068299;28;19917;-83
2022/10/19 03:48:31;;;;;;;;;;;12.00;99.90;;;;;;5041541;28;19916;-83
2022/10/19 03:50:59;;;;;;;;;;;12.00;99.90;;;;;;5068594;28;20330;-83
2022/10/19 03:53:25;;;;;;;;;;;12.00;99.90;;;;;;5073510;28;19936;-83
2022/10/19 03:55:50;;;;;;;;;;;12.00;99.90;;;;;;5070930;28;20388;-83
2022/10/19 03:58:16;;;;;;;;;;;12.10;99.90;;;;;;5071912;28;20369;-83
2022/10/19 04:00:41;;;;;;;;;;;12.00;99.90;;;;;;5064286;28;19921;-83
2022/10/19 04:03:07;;;;;;;;;;;12.00;99.90;;;;;;5054869;28;19982;-83
2022/10/19 04:05:32;;;;;;;;;;;12.00;99.90;;;;;;5077994;28;19924;-83
2022/10/19 04:07:58;;;;;;;;;;;12.10;99.90;;;;;;5074319;28;19916;-84
2022/10/19 04:10:23;;;;;;;;;;;12.10;99.90;;;;;;5076404;28;19923;-83
2022/10/19 04:12:49;;;;;;;;;;;12.10;99.90;;;;;;5069449;28;19924;-83
2022/10/19 04:15:14;;;;;;;;;;;12.10;99.90;;;;;;5078020;28;19954;-83
2022/10/19 04:17:40;;;;;;;;;;;12.10;99.90;;;;;;5070394;28;20007;-83
2022/10/19 04:20:06;;;;;;;;;;;12.10;99.90;;;;;;5067418;28;19942;-83
2022/10/19 04:22:31;;;;;;;;;;;12.10;99.90;;;;;;5075971;28;19920;-83
2022/10/19 04:24:57;;;;;;;;;;;12.10;99.90;;;;;;5058154;28;19916;-86
2022/10/19 04:27:22;;;;;;;;;;;12.10;99.90;;;;;;5058531;28;19913;-86
2022/10/19 04:29:48;;;;;;;;;;;12.10;99.90;;;;;;5060080;28;20007;-85
2022/10/19 04:32:13;;;;;;;;;;;12.10;99.90;;;;;;5070660;28;19913;-86
2022/10/19 04:34:39;;;;;;;;;;;12.00;99.90;;;;;;5073041;28;19916;-85
2022/10/19 04:37:04;;;;;;;;;;;12.00;99.90;;;;;;5075666;28;19966;-86
2022/10/19 04:39:30;;;;;;;;;;;12.00;99.90;;;;;;5053341;28;19916;-86
2022/10/19 04:41:55;;;;;;;;;;;12.00;99.90;;;;;;5076400;28;19927;-86
2022/10/19 04:44:21;;;;;;;;;;;12.00;99.90;;;;;;5075775;28;19935;-86
2022/10/19 04:46:46;;;;;;;;;;;12.00;99.90;;;;;;5081367;28;19995;-83
2022/10/19 04:49:12;;;;;;;;;;;12.10;99.90;;;;;;5076330;28;19960;-84
2022/10/19 04:51:37;;;;;;;;;;;12.10;99.90;;;;;;5057556;28;19959;-84
2022/10/19 04:54:03;;;;;;;;;;;12.10;99.90;;;;;;5056415;28;19963;-86
2022/10/19 04:56:31;;;;;;;;;;;12.10;99.90;;;;;;5076590;28;19934;-84
2022/10/19 04:58:57;;;;;;;;;;;12.10;99.90;;;;;;5055234;28;19920;-84
2022/10/19 05:01:24;;;;;;;;;;;12.10;99.90;;;;;;5073033;28;19928;-84
2022/10/19 05:03:57;;;;;;;;;;;12.10;99.90;;;;;;5073953;28;19913;-85
2022/10/19 05:06:22;;;;;;;;;;;12.20;99.90;;;;;;5076128;28;19965;-84
2022/10/19 05:08:49;;;;;;;;;;;12.20;99.90;;;;;;5058489;28;19916;-85
2022/10/19 05:11:15;;;;;;;;;;;12.20;99.90;;;;;;5072761;28;19909;-84
2022/10/19 05:13:41;;;;;;;;;;;12.20;99.90;;;;;;5073978;28;19908;-85
2022/10/19 05:16:07;;;;;;;;;;;12.30;99.90;;;;;;5077260;28;19909;-85
2022/10/19 05:18:33;;;;;;;;;;;12.30;99.90;;;;;;5075129;28;19943;-85
2022/10/19 05:20:59;;;;;;;;;;;12.30;99.90;;;;;;5075081;28;20001;-84
2022/10/19 05:23:25;;;;;;;;;;;12.30;99.90;;;;;;5074072;28;19915;-85
2022/10/19 05:25:57;;;;;;;;;;;12.30;99.90;;;;;;5055660;28;19912;-84
2022/10/19 05:28:23;;;;;;;;;;;12.30;99.90;;;;;;5072304;28;19915;-85
2022/10/19 05:30:48;;;;;;;;;;;12.40;99.90;;;;;;5055424;28;19995;-85
2022/10/19 05:33:14;;;;;;;;;;;12.40;99.90;;;;;;5054871;28;19951;-85
2022/10/19 05:35:39;;;;;;;;;;;12.30;99.90;;;;;;5069817;28;19939;-85
2022/10/19 05:38:05;;;;;;;;;;;12.40;99.90;;;;;;5056061;28;19917;-85
2022/10/19 05:40:30;;;;;;;;;;;12.30;99.90;;;;;;5056161;28;19928;-85
2022/10/19 05:42:56;;;;;;;;;;;12.30;99.90;;;;;;5075075;28;20011;-85
2022/10/19 05:45:21;;;;;;;;;;;12.30;99.90;;;;;;5073699;28;19913;-85
2022/10/19 05:47:47;;;;;;;;;;;12.30;99.90;;;;;;5057170;28;19924;-85
2022/10/19 05:50:12;;;;;;;;;;;12.30;99.90;;;;;;5070130;28;20333;-85
2022/10/19 05:52:38;;;;;;;;;;;12.30;99.90;;;;;;5074540;28;19939;-86
2022/10/19 05:55:04;;;;;;;;;;;12.30;99.90;;;;;;5053732;28;19912;-84
2022/10/19 05:57:30;;;;;;;;;;;12.40;99.90;;;;;;5064329;28;19917;-85
2022/10/19 05:59:57;;;;;;;;;;;12.40;99.90;;;;;;5072102;28;19951;-84
2022/10/19 06:02:23;;;;;;;;;;;12.40;99.90;;;;;;5073048;28;19920;-84
2022/10/19 06:04:48;;;;;;;;;;;12.40;99.90;;;;;;5054011;28;20011;-85
2022/10/19 06:07:14;;;;;;;;;;;12.40;99.90;;;;;;5070830;28;19912;-84
2022/10/19 06:09:39;;;;;;;;;;;12.40;99.90;;;;;;5071268;28;19967;-84
2022/10/19 06:12:05;;;;;;;;;;;12.40;99.90;;;;;;5070544;28;19913;-84
2022/10/19 06:14:30;;;;;;;;;;;12.40;99.90;;;;;;5072476;28;20331;-85
2022/10/19 06:16:56;;;;;;;;;;;12.40;99.90;;;;;;5071419;28;19913;-85
2022/10/19 06:19:22;;;;;;;;;;;12.40;99.90;;;;;;5074710;28;20283;-85
2022/10/19 06:21:47;;;;;;;;;;;12.50;99.90;;;;;;5056542;28;20007;-85
2022/10/19 06:24:13;;;;;;;;;;;12.40;99.90;;;;;;5055502;28;19913;-85
2022/10/19 06:26:39;;;;;;;;;;;12.50;99.90;;;;;;5073324;28;20019;-84
2022/10/19 06:29:04;;;;;;;;;;;12.50;99.90;;;;;;5072384;28;19955;-85
2022/10/19 06:31:31;;;;;;;;;;;12.50;99.90;;;;;;5073570;28;19960;-85
2022/10/19 06:33:57;;;;;;;;;;;12.50;99.90;;;;;;5074589;28;19909;-85
2022/10/19 06:36:24;;;;;;;;;;;12.50;99.90;;;;;;5094266;28;20265;-85
2022/10/19 06:38:50;;;;;;;;;;;12.50;99.90;;;;;;5094102;28;19908;-85
2022/10/19 06:41:15;;;;;;;;;;;12.50;99.90;;;;;;5094480;28;19919;-85
2022/10/19 06:43:42;;;;;;;;;;;12.50;99.90;;;;;;5093896;28;19943;-85
2022/10/19 06:46:09;;;;;;;;;;;12.40;99.90;;;;;;5093801;28;19908;-85
2022/10/19 06:48:35;;;;;;;;;;;12.50;99.90;;;;;;5094702;28;19912;-85
2022/10/19 06:51:01;;;;;;;;;;;12.50;99.90;;;;;;5093797;28;20359;-85
2022/10/19 06:53:28;;;;;;;;;;;12.50;99.90;;;;;;5077021;28;19916;-85
2022/10/19 06:55:57;;;;;;;;;;;12.50;99.90;;;;;;5092908;28;19908;-85
2022/10/19 06:58:24;;;;;;;;;;;12.50;99.90;;;;;;5093866;28;19912;-85
2022/10/19 07:00:56;;;;;;;;;;;12.50;99.90;;;;;;5093653;28;19909;-85
2022/10/19 07:03:23;;;;;;;;;;;12.50;99.90;;;;;;5079346;28;19916;-85
2022/10/19 07:05:55;;;;;;;;;;;12.60;99.90;;;;;;5089122;28;19970;-84
2022/10/19 07:08:21;;;;;;;;;;;12.60;99.90;;;;;;5092387;28;19914;-84
2022/10/19 07:10:53;;;;;;;;;;;12.60;99.90;;;;;;5075582;28;20350;-85
2022/10/19 07:13:19;;;;;;;;;;;12.60;99.90;;;;;;5092515;28;19959;-85
2022/10/19 07:15:45;;;;;;;;;;;12.70;99.90;;;;;;5092514;28;19919;-85
2022/10/19 07:18:10;;;;;;;;;;;12.70;99.90;;;;;;5075333;28;19938;-84
2022/10/19 07:20:36;;;;;;;;;;;12.70;99.90;;;;;;5092316;28;19920;-85
2022/10/19 07:23:01;;;;;;;;;;;12.70;99.90;;;;;;5075388;28;20387;-85
2022/10/19 07:25:28;;;;;;;;;;;12.80;99.90;;;;;;5092367;28;20391;-85
2022/10/19 07:27:54;;;;;;;;;;;12.80;99.90;;;;;;5054266;28;19919;-84
2022/10/19 07:30:20;;;;;;;;;;;12.80;99.90;;;;;;5071541;28;19940;-84
2022/10/19 07:32:45;;;;;;;;;;;12.80;99.90;;;;;;5070842;28;19908;-84
2022/10/19 07:35:11;;;;;;;;;;;12.90;99.90;;;;;;5080589;28;20011;-84
2022/10/19 07:37:36;;;;;;;;;;;12.90;99.90;;;;;;5075456;28;19942;-84
2022/10/19 07:40:02;;;;;;;;;;;13.00;99.90;;;;;;5058532;28;19974;-85
2022/10/19 07:42:29;;;;;;;;;;;13.00;99.90;;;;;;5075655;28;20012;-84
2022/10/19 07:44:55;;;;;;;;;;;13.10;99.90;;;;;;5075676;28;19909;-84
2022/10/19 07:47:20;;;;;;;;;;;13.10;99.90;;;;;;5075744;28;19912;-85
2022/10/19 07:49:46;;;;;;;;;;;13.10;99.90;;;;;;5075360;28;19912;-84
2022/10/19 07:52:11;;;;;;;;;;;13.10;99.90;;;;;;5075447;28;20046;-85
2022/10/19 07:54:37;;;;;;;;;;;13.20;99.90;;;;;;5075553;28;20074;-85
2022/10/19 07:57:03;;;;;;;;;;;13.20;99.90;;;;;;5075468;28;19913;-85
2022/10/19 07:59:28;;;;;;;;;;;13.20;99.90;;;;;;5075001;28;19921;-84
2022/10/19 08:01:55;;;;;;;;;;;13.30;99.90;;;;;;5054924;28;19920;-84
2022/10/19 08:04:21;;;;;;;;;;;13.30;99.90;;;;;;5063078;28;20041;-84
2022/10/19 08:06:47;;;;;;;;;;;13.30;99.90;;;;;;5096899;28;19939;-85
2022/10/19 08:09:12;;;;;;;;;;;13.40;99.90;;;;;;5095500;28;20286;-85
2022/10/19 08:11:38;;;;;;;;;;;13.40;99.90;;;;;;5095797;28;20003;-84
2022/10/19 08:14:04;;;;;;;;;;;13.40;99.90;;;;;;5096945;28;19954;-85
2022/10/19 08:16:31;;;;;;;;;;;13.50;99.90;;;;;;5097702;28;20328;-85
2022/10/19 08:19:05;;;;;;;;;;;13.50;99.90;;;;;;5095247;28;19938;-85
2022/10/19 08:21:31;;;;;;;;;;;13.60;99.90;;;;;;5095367;28;19908;-85
2022/10/19 08:23:57;;;;;;;;;;;13.60;99.90;;;;;;5096818;28;19990;-85
2022/10/19 08:26:23;;;;;;;;;;;13.60;99.90;;;;;;5095537;28;20327;-85
2022/10/19 08:28:49;;;;;;;;;;;13.60;99.90;;;;;;5095267;28;19968;-84
2022/10/19 08:31:19;;;;;;;;;;;13.60;99.90;;;;;;5094979;28;19912;-85
2022/10/19 08:33:45;;;;;;;;;;;13.70;99.90;;;;;;5078972;28;19909;-84
2022/10/19 08:36:11;;;;;;;;;;;13.70;99.90;;;;;;5094790;28;19915;-85
2022/10/19 08:38:36;;;;;;;;;;;13.70;99.90;;;;;;5095632;28;19916;-85
2022/10/19 08:41:17;;;;;;;;;;;13.70;99.90;;;;;;5094913;28;20386;-85
2022/10/19 08:44:01;;;;;;;;;;;13.80;99.90;;;;;;5094878;28;19909;-84
2022/10/19 08:46:28;;;;;;;;;;;13.80;99.90;;;;;;5094864;28;19930;-84
2022/10/19 08:48:54;;;;;;;;;;;13.80;99.90;;;;;;5094718;28;19909;-85
2022/10/19 08:51:20;;;;;;;;;;;13.90;99.90;;;;;;5077841;28;19919;-85
2022/10/19 08:53:53;;;;;;;;;;;13.90;99.90;;;;;;5094663;28;20322;-84
2022/10/19 08:56:22;;;;;;;;;;;14.00;99.90;;;;;;5094765;28;20399;-85
2022/10/19 08:58:53;;;;;;;;;;;14.00;99.90;;;;;;5094660;28;19919;-84
2022/10/19 09:01:39;;;;;;;;;;;14.10;99.90;;;;;;5094573;28;20011;-85
2022/10/19 09:04:18;;;;;;;;;;;14.10;99.90;;;;;;5076758;28;19967;-85
2022/10/19 09:06:47;;;;;;;;;;;14.10;99.90;;;;;;5094437;28;19908;-84
2022/10/19 09:09:13;;;;;;;;;;;14.20;99.90;;;;;;5094325;28;19915;-84
2022/10/19 09:11:42;;;;;;;;;;;14.30;99.90;;;;;;5095514;28;19912;-85
2022/10/19 09:14:10;;;;;;;;;;;14.30;99.90;;;;;;5094349;28;19908;-85
2022/10/19 09:16:36;;;;;;;;;;;14.30;99.90;;;;;;5095501;28;19939;-85
2022/10/19 09:19:02;;;;;;;;;;;14.40;99.90;;;;;;5094008;28;20004;-84
2022/10/19 09:21:34;;;;;;;;;;;14.40;99.90;;;;;;5094608;28;19912;-84
2022/10/19 09:24:09;;;;;;;;;;;14.50;99.90;;;;;;5094118;28;20280;-85
2022/10/19 09:26:39;;;;;;;;;;;14.50;99.90;;;;;;5094134;28;19908;-84
2022/10/19 09:29:23;;;;;;;;;;;14.60;99.90;;;;;;5094155;28;19908;-84
2022/10/19 09:31:52;;;;;;;;;;;14.60;99.90;;;;;;5087338;28;19954;-85
2022/10/19 09:34:35;;;;;;;;;;;14.70;99.90;;;;;;5075658;28;19915;-84
2022/10/19 09:37:01;;;;;;;;;;;14.70;99.90;;;;;;5071344;28;19957;-85
2022/10/19 09:39:28;;;;;;;;;;;14.80;99.90;;;;;;5081793;28;19913;-86
2022/10/19 09:41:55;;;;;;;;;;;14.80;99.90;;;;;;5072703;28;19908;-85
2022/10/19 09:44:22;;;;;;;;;;;14.90;99.90;;;;;;5073344;28;19909;-85
2022/10/19 09:46:51;;;;;;;;;;;15.00;99.90;;;;;;5073169;28;19962;-86
2022/10/19 09:49:17;;;;;;;;;;;15.00;99.90;;;;;;5089063;28;20007;-85
2022/10/19 09:51:45;;;;;;;;;;;15.00;99.90;;;;;;5073295;28;19944;-85
2022/10/19 09:54:24;;;;;;;;;;;15.00;99.90;;;;;;5073077;28;19915;-85
2022/10/19 09:56:54;;;;;;;;;;;15.10;99.90;;;;;;5072767;28;19966;-85
2022/10/19 09:59:21;;;;;;;;;;;15.10;99.90;;;;;;5073271;28;19913;-85
2022/10/19 10:01:57;;;;;;;;;;;15.10;99.90;;;;;;5073043;28;20007;-85
2022/10/19 10:04:23;;;;;;;;;;;15.20;99.90;;;;;;5073056;28;19916;-85
2022/10/19 10:06:48;;;;;;;;;;;15.20;99.90;;;;;;5056208;28;20379;-86
2022/10/19 10:09:18;;;;;;;;;;;15.30;99.90;;;;;;5067122;28;20292;-85
2022/10/19 10:11:45;;;;;;;;;;;15.20;99.90;;;;;;5067380;28;19959;-85
2022/10/19 10:14:22;;;;;;;;;;;15.30;99.90;;;;;;5073498;28;19909;-86
2022/10/19 10:16:53;;;;;;;;;;;15.30;99.90;;;;;;5076635;28;19923;-85
2022/10/19 10:19:18;;;;;;;;;;;15.30;99.90;;;;;;5075001;28;19935;-85
2022/10/19 10:21:47;;;;;;;;;;;15.30;99.90;;;;;;5056187;28;19977;-85
2022/10/19 10:24:12;;;;;;;;;;;15.30;99.90;;;;;;5072778;28;19908;-84
2022/10/19 10:26:42;;;;;;;;;;;15.30;99.90;;;;;;5074433;28;20083;-84
2022/10/19 10:29:20;;;;;;;;;;;15.30;99.90;;;;;;5073087;28;19916;-84
2022/10/19 10:31:54;;;;;;;;;;;15.30;99.90;;;;;;5074425;28;20364;-85
2022/10/19 10:34:37;;;;;;;;;;;15.40;99.90;;;;;;5073472;28;19959;-85
2022/10/19 10:37:04;;;;;;;;;;;15.40;99.90;;;;;;5072683;28;20025;-85
2022/10/19 10:39:30;;;;;;;;;;;15.50;99.90;;;;;;5072884;28;20387;-85
2022/10/19 10:41:59;;;;;;;;;;;15.50;99.90;;;;;;5073925;28;19909;-85
2022/10/19 10:44:28;;;;;;;;;;;15.50;99.90;;;;;;5073188;28;19939;-85
2022/10/19 10:46:55;;;;;;;;;;;15.60;99.90;;;;;;5072824;28;19909;-84
2022/10/19 10:49:23;;;;;;;;;;;15.60;99.90;;;;;;5074163;28;19948;-85
2022/10/19 10:52:08;;;;;;;;;;;15.70;99.90;;;;;;5073909;28;19962;-84
2022/10/19 10:54:34;;;;;;;;;;;15.70;99.90;;;;;;5074680;28;19909;-85
2022/10/19 10:57:12;;;;;;;;;;;15.70;99.90;;;;;;5076740;28;19913;-85
2022/10/19 10:59:44;;;;;;;;;;;15.80;99.90;;;;;;5073834;28;20372;-85
2022/10/19 11:02:09;;;;;;;;;;;15.80;99.90;;;;;;5073869;28;19932;-85
2022/10/19 11:04:37;;;;;;;;;;;15.90;99.90;;;;;;5072395;28;19908;-85
2022/10/19 11:07:23;;;;;;;;;;;15.90;99.90;;;;;;5072395;28;19916;-85
2022/10/19 11:10:12;;;;;;;;;;;16.00;99.90;;;;;;5077217;28;19912;-86
2022/10/19 11:12:40;;;;;;;;;;;16.00;99.90;;;;;;5072132;28;20333;-85
2022/10/19 11:15:11;;;;;;;;;;;16.10;99.90;;;;;;5077862;28;19908;-84
2022/10/19 11:17:40;;;;;;;;;;;16.10;99.90;;;;;;5076523;28;19913;-85
2022/10/19 11:20:09;;;;;;;;;;;16.20;99.90;;;;;;5077390;28;19957;-84
2022/10/19 11:22:55;;;;;;;;;;;16.30;99.90;;;;;;5076175;28;20380;-84
2022/10/19 11:25:20;;;;;;;;;;;16.40;99.90;;;;;;5082724;28;19931;-85
2022/10/19 11:27:55;;;;;;;;;;;16.50;99.90;;;;;;5078206;28;19908;-85
2022/10/19 11:30:21;;;;;;;;;;;16.60;99.90;;;;;;5077500;28;20007;-85
2022/10/19 11:32:56;;;;;;;;;;;16.70;99.90;;;;;;5077660;28;19908;-85
2022/10/19 11:35:28;;;;;;;;;;;16.70;99.90;;;;;;5076174;28;19931;-85
2022/10/19 11:38:12;;;;;;;;;;;16.80;99.90;;;;;;5060611;28;19913;-85
2022/10/19 11:40:58;;;;;;;;;;;16.70;99.90;;;;;;5075856;28;19915;-85
2022/10/19 11:43:34;;;;;;;;;;;16.80;99.90;;;;;;5077909;28;20241;-85
2022/10/19 11:46:22;;;;;;;;;;;16.90;99.90;;;;;;5077179;28;20372;-85
2022/10/19 11:48:54;;;;;;;;;;;16.90;99.90;;;;;;5067608;28;19915;-85
2022/10/19 11:51:23;;;;;;;;;;;17.00;99.90;;;;;;5075825;28;19914;-84
2022/10/19 11:53:51;;;;;;;;;;;17.10;99.90;;;;;;5077147;28;20428;-85
2022/10/19 11:56:19;;;;;;;;;;;17.10;99.90;;;;;;5076972;28;19909;-85
2022/10/19 11:58:48;;;;;;;;;;;17.20;99.90;;;;;;5075504;28;20360;-85
2022/10/19 12:01:17;;;;;;;;;;;17.30;99.90;;;;;;5075419;28;19912;-85
2022/10/19 12:03:51;;;;;;;;;;;17.40;99.90;;;;;;5076856;28;19924;-85
2022/10/19 12:06:29;;;;;;;;;;;17.50;99.90;;;;;;5075476;28;19956;-85
2022/10/19 12:09:10;;;;;;;;;;;17.70;99.90;;;;;;5076751;28;19973;-83
2022/10/19 12:11:35;;;;;;;;;;;17.80;99.90;;;;;;5077107;28;20364;-84
2022/10/19 12:14:08;;;;;;;;;;;17.90;99.90;;;;;;5076997;28;19916;-83
2022/10/19 12:16:39;;;;;;;;;;;17.90;99.90;;;;;;5066074;28;19999;-84
2022/10/19 12:19:05;;;;;;;;;;;17.90;99.90;;;;;;5074720;28;19954;-84
2022/10/19 12:21:36;;;;;;;;;;;18.00;99.90;;;;;;5076842;28;20306;-83
2022/10/19 12:24:04;;;;;;;;;;;18.00;99.90;;;;;;5075642;28;19953;-84
2022/10/19 12:26:33;;;;;;;;;;;18.10;99.90;;;;;;5076362;28;19919;-84
2022/10/19 12:29:02;;;;;;;;;;;18.20;99.90;;;;;;5076329;28;19916;-83
2022/10/19 12:31:28;;;;;;;;;;;18.20;99.90;;;;;;5077363;28;19915;-84
2022/10/19 12:33:53;;;;;;;;;;;18.30;99.90;;;;;;5078908;28;19912;-85
2022/10/19 12:36:31;;;;;;;;;;;18.40;99.90;;;;;;5097623;28;19962;-84
2022/10/19 12:38:57;;;;;;;;;;;18.40;99.90;;;;;;5096252;28;20348;-84
2022/10/19 12:41:28;;;;;;;;;;;18.40;99.90;;;;;;5097056;28;19915;-84
2022/10/19 12:44:08;;;;;;;;;;;18.40;99.90;;;;;;5095456;28;19912;-84
2022/10/19 12:46:40;;;;;;;;;;;18.40;99.90;;;;;;5095426;28;19951;-84
2022/10/19 12:49:24;;;;;;;;;;;18.50;99.90;;;;;;5095146;28;19912;-84
2022/10/19 12:51:51;;;;;;;;;;;18.50;99.90;;;;;;5095220;28;19962;-84
2022/10/19 12:54:20;;;;;;;;;;;18.60;99.90;;;;;;5095099;28;19957;-83
2022/10/19 12:56:50;;;;;;;;;;;18.80;99.90;;;;;;5096122;28;20363;-84
2022/10/19 12:59:25;;;;;;;;;;;18.90;99.90;;;;;;5094910;28;19915;-83
2022/10/19 13:01:51;;;;;;;;;;;19.00;99.90;;;;;;5095814;28;20007;-84
2022/10/19 13:04:22;;;;;;;;;;;19.20;99.90;;;;;;5062535;28;19920;-83
2022/10/19 13:06:59;;;;;;;;;;;19.30;99.90;;;;;;5101654;28;19942;-84
2022/10/19 13:09:57;;;;;;;;;;;19.50;99.90;;;;;;5102178;28;19967;-83
2022/10/19 13:12:22;;;;;;;;;;;19.60;99.90;;;;;;5074264;28;19908;-84
2022/10/19 13:14:52;;;;;;;;;;;19.80;99.90;;;;;;5096842;28;19953;-83
2022/10/19 13:17:33;;;;;;;;;;;19.90;99.90;;;;;;5097385;28;20010;-83
2022/10/19 13:20:14;;;;;;;;;;;19.90;99.90;;;;;;5095439;28;19908;-84
2022/10/19 13:22:49;;;;;;;;;;;19.90;99.90;;;;;;5096151;28;19943;-83
2022/10/19 13:25:46;;;;;;;;;;;19.90;99.90;;;;;;5096296;28;20364;-84
2022/10/19 13:28:13;;;;;;;;;;;19.80;99.90;;;;;;5072981;28;19914;-83
2022/10/19 13:30:42;;;;;;;;;;;19.70;99.90;;;;;;5093904;28;19911;-83
2022/10/19 13:33:23;;;;;;;;;;;19.50;99.90;;;;;;5082990;28;19954;-84
2022/10/19 13:35:58;;;;;;;;;;;19.40;99.90;;;;;;5073702;28;19912;-83
2022/10/19 13:38:35;;;;;;;;;;;19.30;99.90;;;;;;5073719;28;19920;-83
2022/10/19 13:41:07;;;;;;;;;;;19.20;99.90;;;;;;5075156;28;19909;-84
2022/10/19 13:44:00;;;;;;;;;;;19.10;99.90;;;;;;5074042;28;20367;-83
2022/10/19 13:46:28;;;;;;;;;;;19.10;99.90;;;;;;5071003;28;19915;-83
2022/10/19 13:48:57;;;;;;;;;;;19.10;99.90;;;;;;5074293;28;19908;-83
2022/10/19 13:51:41;;;;;;;;;;;19.10;99.90;;;;;;5075133;28;19913;-83
2022/10/19 13:54:25;;;;;;;;;;;19.10;99.90;;;;;;5074161;28;20011;-84
2022/10/19 13:57:03;;;;;;;;;;;19.20;99.90;;;;;;5075145;28;19915;-85
2022/10/19 13:59:47;;;;;;;;;;;19.30;99.90;;;;;;5077082;28;19909;-84
2022/10/19 14:02:32;;;;;;;;;;;19.30;99.90;;;;;;5076520;28;19974;-84
2022/10/19 14:05:03;;;;;;;;;;;19.30;99.90;;;;;;5078098;28;19908;-84
2022/10/19 14:07:35;;;;;;;;;;;19.10;99.90;;;;;;5079299;28;19958;-84
2022/10/19 14:10:07;;;;;;;;;;;19.00;99.90;;;;;;5094518;28;19972;-84
2022/10/19 14:12:39;;;;;;;;;;;18.90;99.90;;;;;;5095006;28;19904;-84
2022/10/19 14:15:16;;;;;;;;;;;18.80;99.90;;;;;;5094472;28;19933;-83
2022/10/19 14:17:42;;;;;;;;;;;18.60;99.90;;;;;;5089458;28;19912;-83
2022/10/19 14:20:23;;;;;;;;;;;18.60;99.90;;;;;;5067148;28;20228;-83
2022/10/19 14:22:49;;;;;;;;;;;18.50;99.90;;;;;;5086771;28;19912;-84
2022/10/19 14:25:16;;;;;;;;;;;18.50;99.90;;;;;;5078244;28;19913;-84
2022/10/19 14:27:42;;;;;;;;;;;18.50;99.90;;;;;;5076066;28;20043;-84